• Join FlightAware (Why Join?)
  • Login
  • US Flag 
02:00PM EST


 

Airport Tracker/Info


-or-


 

Live Flight TrackerFlight Track Log ✈ RPA3281 ✈ 17-May-2012 ✈ KSYR - KCLT

Flight Track Log - Related Links

Times and Time Zones

All times are in EDT time to prevent confusion due to time zone crossing. See the RPA3281 flight status page for this flight to view local times or setup timezone preferences in your user account.

Time Position Orientation Groundspeed Altitude Reporting Facility
EDT Latitude Longitude Course Direction KTS MPH feet Rate Location/Type
01:19PM 43.1075 -76.1375 223° Southwest 140 161 1,100  Level Boston Center
01:24PM 42.8772 -76.4306 208° Southwest 308 354 10,800 1,920 Climbing New York Center
01:25PM 42.7931 -76.4908 211° Southwest 335 386 12,000 1,740 Climbing New York Center
01:26PM 42.7108 -76.5569 210° Southwest 352 405 14,400 2,400 Climbing New York Center
01:27PM 42.6242 -76.6256 208° Southwest 358 412 16,800 1,260 Climbing New York Center
01:28PM 42.5358 -76.6906 210° Southwest 364 419 17,000 660 Climbing New York Center
01:29PM 42.4492 -76.7586 209° Southwest 369 425 18,200 1,620 Climbing New York Center
01:30PM 42.3603 -76.8264 209° Southwest 369 425 20,300 1,740 Climbing New York Center
01:31PM 42.2653 -76.8961 208° Southwest 374 430 21,900 1,740 Climbing New York Center
01:32PM 42.1700 -76.9656 210° Southwest 380 437 23,800 1,740 Climbing New York Center
01:33PM 42.0722 -77.0403 214° Southwest 399 459 25,300 1,380 Climbing New York Center
01:34PM 41.9806 -77.1236 211° Southwest 404 465 26,600 1,200 Climbing New York Center
01:35PM 41.8825 -77.2033 211° Southwest 409 471 27,800 1,020 Climbing New York Center
01:36PM 41.7844 -77.2831 212° Southwest 409 471 28,700 840 Climbing New York Center
01:37PM 41.6839 -77.3675 213° Southwest 420 483 29,600 900 Climbing New York Center
01:38PM 41.5833 -77.4547 210° Southwest 428 493 30,600 1,080 Climbing New York Center
01:39PM 41.4831 -77.5333 213° Southwest 433 498 31,800 660 Climbing New York Center
01:40PM 41.3822 -77.6203 227° Southwest 433 498 32,000 360 Climbing New York Center
01:41PM 41.2631 -77.7903 228° Southwest 423 487 32,800 720 Climbing Cleveland Center
01:42PM 41.1886 -77.8983 227° Southwest 408 470 34,000 540 Climbing Cleveland Center
01:43PM 41.1139 -78.0061 228° Southwest 403 464 34,000  Level Cleveland Center
01:44PM 41.0392 -78.1164 227° Southwest 403 464 34,000  Level Cleveland Center
01:45PM 40.9622 -78.2239 229° Southwest 403 464 34,000  Level Cleveland Center
01:46PM 40.8894 -78.3364 226° Southwest 403 464 34,000  Level Cleveland Center
01:47PM 40.8103 -78.4461 226° Southwest 403 464 34,000  Level Cleveland Center
01:48PM 40.7228 -78.5667 228° Southwest 408 470 34,000  Level Cleveland Center
01:49PM 40.6475 -78.6758 228° Southwest 408 470 34,000  Level Cleveland Center
01:50PM 40.5719 -78.7844 227° Southwest 408 470 34,000  Level Cleveland Center
01:51PM 40.4944 -78.8931 227° Southwest 408 470 34,000  Level Cleveland Center
01:52PM 40.4169 -79.0014 227° Southwest 408 470 34,000  Level Cleveland Center
01:53PM 40.3453 -79.1011 227° Southwest 408 470 34,000  Level Cleveland Center
01:54PM 40.2672 -79.2089 227° Southwest 408 470 34,000  Level Cleveland Center
01:55PM 40.1914 -79.3167 228° Southwest 408 470 34,000  Level Cleveland Center
01:56PM 40.1156 -79.4267 226° Southwest 408 470 34,000  Level Cleveland Center
01:57PM 40.0353 -79.5364 227° Southwest 408 470 34,000  Level Cleveland Center
01:58PM 39.9592 -79.6433 225° Southwest 408 470 34,000  Level Cleveland Center
01:59PM 39.8786 -79.7500 227° Southwest 408 470 34,000  Level Cleveland Center
02:00PM 39.7939 -79.8672 226° Southwest 408 470 34,000  Level Cleveland Center
02:03PM 39.6008 -80.1267 226° Southwest 419 482 34,000  Level Indianapolis Center
02:04PM 39.5206 -80.2328 225° Southwest 419 482 34,000  Level Indianapolis Center
02:05PM 39.4400 -80.3386 228° Southwest 419 482 34,000  Level Indianapolis Center
02:06PM 39.3617 -80.4497 225° Southwest 419 482 34,000  Level Indianapolis Center
02:07PM 39.2811 -80.5553 226° Southwest 419 482 34,000  Level Indianapolis Center
02:08PM 39.2003 -80.6631 225° Southwest 419 482 34,000  Level Indianapolis Center
02:09PM 39.1194 -80.7681 226° Southwest 419 482 34,000  Level Indianapolis Center
02:10PM 39.0386 -80.8756 225° Southwest 419 482 34,000  Level Indianapolis Center
02:11PM 38.9553 -80.9828 226° Southwest 424 488 34,000  Level Indianapolis Center
02:12PM 38.8742 -81.0897 214° Southwest 424 488 34,000  Level Indianapolis Center
02:13PM 38.7781 -81.1728 197° South 419 482 34,000  Level Indianapolis Center
02:14PM 38.6622 -81.2192 199° South 419 482 34,000  Level Indianapolis Center
02:15PM 38.5483 -81.2681 198° South 431 496 34,000  Level Indianapolis Center
02:16PM 38.4344 -81.3167 198° South 438 504 34,000  Level Indianapolis Center
02:17PM 38.3186 -81.3653 197° South 438 504 34,000  Level Indianapolis Center
02:18PM 38.2172 -81.4053 199° South 438 504 34,000  Level Indianapolis Center
02:19PM 38.1056 -81.4533 199° South 438 504 34,000 -60 Level Indianapolis Center
02:20PM 37.9958 -81.5014 198° South 433 498 33,900 -540 Descending Indianapolis Center
02:21PM 37.8797 -81.5494 198° South 433 498 33,000 -900 Descending Indianapolis Center
02:22PM 37.7556 -81.6000 197° South 433 498 32,100 -900 Descending Indianapolis Center
02:23PM 37.6414 -81.6450 198° South 433 498 31,200 -900 Descending Indianapolis Center
02:25PM 37.4314 -81.7311 198° South 435 501 29,700 -900 Descending Atlanta Center
02:26PM 37.3156 -81.7792 197° South 435 501 28,800 -900 Descending Atlanta Center
02:27PM 37.1997 -81.8242 199° South 435 501 28,000 -420 Descending Atlanta Center
02:28PM 37.0839 -81.8742 197° South 441 507 28,000  Level Atlanta Center
02:29PM 36.9783 -81.9133 198° South 441 507 28,000  Level Atlanta Center
02:30PM 36.8583 -81.9633 183° South 441 507 28,000  Level Atlanta Center
02:31PM 36.7353 -81.9717 169° South 446 513 28,000  Level Atlanta Center
02:32PM 36.6075 -81.9414 163° South 446 513 28,000  Level Atlanta Center
02:33PM 36.4775 -81.8933 165° South 457 526 28,000 -780 Level Atlanta Center
02:34PM 36.3536 -81.8528 163° South 456 525 26,500 -1,800 Descending Atlanta Center
02:35PM 36.2489 -81.8142 164° South 450 518 24,500 -2,160 Descending Atlanta Center
02:36PM 36.1353 -81.7739 165° South 435 501 22,200 -2,280 Descending Atlanta Center
02:37PM 36.0242 -81.7358 164° South 418 481 20,000 -2,160 Descending Atlanta Center
02:38PM 35.9169 -81.6978 163° South 412 474 17,900 -2,100 Descending Atlanta Center
02:39PM 35.8142 -81.6597 165° South 397 457 15,900 -2,040 Descending Atlanta Center
02:40PM 35.7153 -81.6269 165° South 385 443 13,900 -2,100 Descending Atlanta Center
02:40PM 35.6294 -81.5986 140° Southeast 337 388 12,100 -1,140 Descending Atlanta Center
02:41PM 35.5783 -81.5467 127° Southeast 305 351 12,000 -60 Descending Atlanta Center
02:42PM 35.5286 -81.4664 130° Southeast 302 348 12,000 -420 Level Atlanta Center
02:43PM 35.4725 -81.3842 130° Southeast 300 345 11,200 -1,020 Descending Atlanta Center
02:44PM 35.4208 -81.3094 129° Southeast 297 342 10,000 -1,140 Descending Atlanta Center
02:45PM 35.3692 -81.2319 130° Southeast 295 339 9,000 -540 Descending Atlanta Center
02:46PM 35.3172 -81.1550 134° Southeast 295 339 9,000  Level Atlanta Center
02:47PM 35.2569 -81.0781 173° South 290 334 9,000 -480 Level Atlanta Center
02:48PM 35.1858 -81.0681 176° South 260 299 8,100 -1,260 Descending Atlanta Center
02:49PM 35.1167 -81.0628 176° South 249 287 6,500 -1,500 Descending Atlanta Center
02:50PM 35.0394 -81.0556 175° South 240 276 5,000 -720 Descending Atlanta Center
02:51PM 34.9725 -81.0478 79° East 237 273 5,000  Level Atlanta Center
02:52PM 34.9814 -80.9917 10° North 209 241 5,000 -660 Level Atlanta Center
02:54PM 35.0375 -80.9794 12° North 189 217 3,700 -1,200 Descending Atlanta Center
02:55PM 35.0853 -80.9675 North 177 204 2,600 -840 Descending Atlanta Center
02:55PM 35.1289 -80.9608 North 169 194 2,100 -600 Descending Atlanta Center